Terminal Aerodrome Forecast
Issued by NWS Raleigh/Durham, NC

Home | Current Version | Previous Version | Text Only | Print | Product List | Glossary On
Versions: 1 2 3 4 5 6 7 8 9 10 11 12 13 14
000
FTUS42 KRAH 252325
TAFFAY
TAF
KFAY 252325Z 2600/2624 03007KT P6SM BKN040
     FM260500 02007KT P6SM BKN025
     FM261000 01009KT P6SM OVC010
     FM261500 01014G21KT P6SM SCT020=

USA.gov is the U.S. government's official web portal to all federal, state and local government web resources and services.